Topia, North Carolina
Current Conditions -  °F | °C
As of 12:35 PM on Friday 21 Nov 2014 (Local Time) from KGEV Reporting Station
Clear Clear  
Wind Chill: 32°   Ceiling: Unl
Heat Index: 38°   Visibility: 10mi
Dew Point: -11°   Wind: 10mph
Humidity: 12%   Direction: 330°NNW
Pressure: 30.33"   Gusts: NA
Location:  36.4835°N, 81.3122°W
Report Text: KGEV 211735Z AUTO 33009KT 10SM CLR 04/M24 A3033 RMK AO2 T00361241
Loading
Personal Weather Stations






























Interactive Weather Map New forecast layout! Learn more

10-Day Weather Forecast

Advertisements
Track Severe Weather on mobile